Time;durP1;ratioP1;P1;durP2;ratioP2;P2;SDS_P1;SDS_P2;PMS_P1;PMS_P2;Temp;Humidity;BMP_temperature;BMP_pressure;BME280_temperature;BME280_humidity;BME280_pressure;Samples;Min_cycle;Max_cycle;Signal;HPM_P1;HPM_P2
2022/04/18 00:01:20;;;;;;;3.08;1.67;;;;;;;;;;5032909;28;20042;-37
2022/04/18 00:03:45;;;;;;;3.10;1.90;;;;;;;;;;5033046;28;20013;-37
2022/04/18 00:06:11;;;;;;;3.70;1.90;;;;;;;;;;5032834;28;20112;-38
2022/04/18 00:08:36;;;;;;;1.92;1.63;;;;;;;;;;5032925;28;20428;-37
2022/04/18 00:11:02;;;;;;;4.07;2.03;;;;;;;;;;5032801;28;20476;-37
2022/04/18 00:13:27;;;;;;;2.50;1.90;;;;;;;;;;5032699;28;20026;-37
2022/04/18 00:15:53;;;;;;;3.88;1.67;;;;;;;;;;5032734;28;20049;-40
2022/04/18 00:18:18;;;;;;;2.13;1.92;;;;;;;;;;5032716;28;20028;-37
2022/04/18 00:20:44;;;;;;;2.08;1.40;;;;;;;;;;5032780;28;20057;-37
2022/04/18 00:23:09;;;;;;;2.80;1.80;;;;;;;;;;5032581;28;20055;-37
2022/04/18 00:25:34;;;;;;;1.73;1.42;;;;;;;;;;5032869;28;20706;-38
2022/04/18 00:28:00;;;;;;;2.88;1.65;;;;;;;;;;5032729;28;20126;-37
2022/04/18 00:30:25;;;;;;;2.40;1.42;;;;;;;;;;5032829;28;20034;-37
2022/04/18 00:32:51;;;;;;;7.18;1.92;;;;;;;;;;5032216;28;20480;-37
2022/04/18 00:35:16;;;;;;;1.67;1.30;;;;;;;;;;5032361;28;20063;-37
2022/04/18 00:37:42;;;;;;;4.82;2.15;;;;;;;;;;5032368;28;20461;-37
2022/04/18 00:40:08;;;;;;;2.30;1.38;;;;;;;;;;5032344;28;20319;-37
2022/04/18 00:42:34;;;;;;;3.13;1.85;;;;;;;;;;5032239;28;20477;-37
2022/04/18 00:45:00;;;;;;;5.07;1.50;;;;;;;;;;5032100;28;20104;-37
2022/04/18 00:47:26;;;;;;;2.08;1.65;;;;;;;;;;5032003;28;20065;-38
2022/04/18 00:49:51;;;;;;;3.22;1.88;;;;;;;;;;5032284;28;20112;-37
2022/04/18 00:52:17;;;;;;;4.05;1.50;;;;;;;;;;5030167;28;20056;-37
2022/04/18 00:54:43;;;;;;;2.78;1.67;;;;;;;;;;5031993;28;20022;-37
2022/04/18 00:57:09;;;;;;;3.45;1.85;;;;;;;;;;5031975;28;20021;-37
2022/04/18 00:59:37;;;;;;;3.35;1.67;;;;;;;;;;5031970;28;20048;-37
2022/04/18 01:02:04;;;;;;;1.95;1.50;;;;;;;;;;5031682;28;20109;-37
2022/04/18 01:04:30;;;;;;;3.38;2.15;;;;;;;;;;5031896;28;20053;-36
2022/04/18 01:06:56;;;;;;;2.17;1.85;;;;;;;;;;5031892;28;20072;-37
2022/04/18 01:09:22;;;;;;;4.72;2.10;;;;;;;;;;5030486;28;20029;-37
2022/04/18 01:11:48;;;;;;;2.47;1.83;;;;;;;;;;5030532;28;20434;-37
2022/04/18 01:14:28;;;;;;;2.65;1.98;;;;;;;;;;5030525;28;20057;-37
2022/04/18 01:17:12;;;;;;;2.47;1.55;;;;;;;;;;5031933;28;20073;-37
2022/04/18 01:20:00;;;;;;;3.95;1.58;;;;;;;;;;5030339;28;20083;-37
2022/04/18 01:22:45;;;;;;;2.60;1.65;;;;;;;;;;5030305;28;20492;-37
2022/04/18 01:30:53;;;;;;;3.58;1.95;;;;;;;;;;5030142;28;20033;-37
2022/04/18 01:33:18;;;;;;;4.82;2.03;;;;;;;;;;5030201;28;20070;-37
2022/04/18 01:35:45;;;;;;;2.92;2.30;;;;;;;;;;5030196;28;20033;-37
2022/04/18 01:38:11;;;;;;;5.22;1.50;;;;;;;;;;5030018;28;20025;-37
2022/04/18 01:40:37;;;;;;;1.92;1.60;;;;;;;;;;5030105;28;20056;-37
2022/04/18 01:43:06;;;;;;;5.90;1.50;;;;;;;;;;5029967;28;20072;-37
2022/04/18 01:49:19;;;;;;;2.50;1.98;;;;;;;;;;5031505;28;20115;-37
2022/04/18 01:51:45;;;;;;;3.35;1.75;;;;;;;;;;5031514;28;20053;-37
2022/04/18 01:54:10;;;;;;;4.15;1.92;;;;;;;;;;5029886;28;20071;-37
2022/04/18 01:56:36;;;;;;;3.05;1.90;;;;;;;;;;5031339;28;20106;-37
2022/04/18 01:59:02;;;;;;;2.72;1.55;;;;;;;;;;5029806;28;20026;-37
2022/04/18 02:01:28;;;;;;;3.95;2.05;;;;;;;;;;5029829;28;20072;-37
2022/04/18 02:03:53;;;;;;;2.75;1.30;;;;;;;;;;5033403;28;20022;-37
2022/04/18 02:06:19;;;;;;;2.25;1.40;;;;;;;;;;5033908;28;20553;-37
2022/04/18 02:08:45;;;;;;;2.05;1.52;;;;;;;;;;5034025;28;20388;-37
2022/04/18 02:11:11;;;;;;;3.55;2.47;;;;;;;;;;5033772;28;20037;-37
2022/04/18 02:13:37;;;;;;;3.08;2.28;;;;;;;;;;5033675;28;20025;-37
2022/04/18 02:16:06;;;;;;;2.85;1.92;;;;;;;;;;5033689;28;20029;-37
2022/04/18 02:18:32;;;;;;;5.07;2.05;;;;;;;;;;5033731;28;20053;-38
2022/04/18 02:20:57;;;;;;;2.67;1.90;;;;;;;;;;5033512;28;20065;-38
2022/04/18 02:23:23;;;;;;;2.88;1.50;;;;;;;;;;5034911;28;20481;-36
2022/04/18 02:25:48;;;;;;;2.13;1.65;;;;;;;;;;5033565;28;20029;-37
2022/04/18 02:28:15;;;;;;;2.20;1.60;;;;;;;;;;5033461;28;20017;-37
2022/04/18 02:30:47;;;;;;;3.55;1.63;;;;;;;;;;5033474;28;20034;-37
2022/04/18 02:33:12;;;;;;;1.85;1.45;;;;;;;;;;5033363;28;20036;-37
2022/04/18 02:35:38;;;;;;;3.00;1.75;;;;;;;;;;5033343;28;20025;-37
2022/04/18 02:38:04;;;;;;;3.10;1.70;;;;;;;;;;5033244;28;20120;-37
2022/04/18 02:40:41;;;;;;;2.22;1.77;;;;;;;;;;5033208;28;20032;-39
2022/04/18 02:43:06;;;;;;;4.25;2.33;;;;;;;;;;5033080;28;20037;-37
2022/04/18 02:45:33;;;;;;;1.52;1.42;;;;;;;;;;5033066;28;20024;-37
2022/04/18 02:48:19;;;;;;;4.63;1.80;;;;;;;;;;5034374;28;20042;-37
2022/04/18 02:50:48;;;;;;;3.95;1.55;;;;;;;;;;5033172;28;20081;-37
2022/04/18 02:53:15;;;;;;;2.42;1.63;;;;;;;;;;5032928;28;20025;-37
2022/04/18 02:55:48;;;;;;;2.47;1.52;;;;;;;;;;5032986;28;20030;-37
2022/04/18 02:58:14;;;;;;;3.17;1.50;;;;;;;;;;5032868;28;20043;-37
2022/04/18 03:00:41;;;;;;;6.93;2.08;;;;;;;;;;5032868;28;20484;-37
2022/04/18 03:03:07;;;;;;;2.50;1.55;;;;;;;;;;5032744;28;20431;-37
2022/04/18 03:05:35;;;;;;;1.38;1.27;;;;;;;;;;5034157;28;20025;-37
2022/04/18 03:08:00;;;;;;;2.97;1.83;;;;;;;;;;5032770;28;20032;-37
2022/04/18 03:13:14;;;;;;;3.67;1.38;;;;;;;;;;5032655;28;20036;-37
2022/04/18 03:15:39;;;;;;;3.25;1.98;;;;;;;;;;5031962;28;20033;-36
2022/04/18 03:18:05;;;;;;;3.10;1.33;;;;;;;;;;5032540;28;20060;-37
2022/04/18 03:20:32;;;;;;;5.32;1.77;;;;;;;;;;5034084;28;20018;-37
2022/04/18 03:22:57;;;;;;;2.03;1.40;;;;;;;;;;5032381;28;20038;-37
2022/04/18 03:25:42;;;;;;;4.50;2.17;;;;;;;;;;5033636;28;20018;-37
2022/04/18 03:28:09;;;;;;;2.75;1.42;;;;;;;;;;5033995;28;20039;-37
2022/04/18 03:30:35;;;;;;;3.47;2.20;;;;;;;;;;5033608;28;20029;-37
2022/04/18 03:33:00;;;;;;;2.90;2.03;;;;;;;;;;5033458;28;20071;-37
2022/04/18 03:35:26;;;;;;;4.47;2.13;;;;;;;;;;5032371;28;20072;-37
2022/04/18 03:40:36;;;;;;;4.00;2.17;;;;;;;;;;5032156;28;20021;-36
2022/04/18 03:43:01;;;;;;;4.50;2.30;;;;;;;;;;5032046;28;20033;-37
2022/04/18 03:45:27;;;;;;;3.67;2.28;;;;;;;;;;5031932;28;20569;-37
2022/04/18 03:47:53;;;;;;;3.60;2.17;;;;;;;;;;5032082;28;20037;-37
2022/04/18 03:50:18;;;;;;;3.83;2.03;;;;;;;;;;5033348;28;20072;-37
2022/04/18 03:52:44;;;;;;;3.55;1.85;;;;;;;;;;5031882;28;20025;-37
2022/04/18 03:55:25;;;;;;;1.60;1.45;;;;;;;;;;5031947;28;20034;-37
2022/04/18 03:57:51;;;;;;;5.93;1.95;;;;;;;;;;5031941;28;20060;-37
2022/04/18 04:00:17;;;;;;;2.45;1.95;;;;;;;;;;5031603;28;20450;-37
2022/04/18 04:02:47;;;;;;;4.53;1.88;;;;;;;;;;5031771;28;20448;-37
2022/04/18 04:05:19;;;;;;;2.67;2.15;;;;;;;;;;5031683;28;20070;-37
2022/04/18 04:07:48;;;;;;;3.17;2.10;;;;;;;;;;5031644;28;20041;-37
2022/04/18 04:10:30;;;;;;;3.13;1.88;;;;;;;;;;5031706;28;20037;-37
2022/04/18 04:12:58;;;;;;;3.38;1.67;;;;;;;;;;5032784;28;20733;-37
2022/04/18 04:15:56;;;;;;;2.70;1.90;;;;;;;;;;5020678;28;20427;-37
2022/04/18 04:18:25;;;;;;;3.70;2.00;;;;;;;;;;5031508;28;20365;-37
2022/04/18 04:20:53;;;;;;;5.82;2.25;;;;;;;;;;5031208;28;20090;-37
2022/04/18 04:23:19;;;;;;;5.10;2.13;;;;;;;;;;5031345;28;20029;-37
2022/04/18 04:26:05;;;;;;;4.47;1.80;;;;;;;;;;5031028;28;20036;-37
2022/04/18 04:28:50;;;;;;;4.53;2.20;;;;;;;;;;5030907;28;20064;-37
2022/04/18 04:31:24;;;;;;;2.90;1.85;;;;;;;;;;5031202;28;20029;-37
2022/04/18 04:33:49;;;;;;;2.72;1.75;;;;;;;;;;5031187;28;20542;-36
2022/04/18 04:36:18;;;;;;;2.10;1.60;;;;;;;;;;5032355;28;20108;-37
2022/04/18 04:38:45;;;;;;;6.47;2.17;;;;;;;;;;5031196;28;20021;-37
2022/04/18 04:41:19;;;;;;;2.47;1.60;;;;;;;;;;5030949;28;20151;-37
2022/04/18 04:43:56;;;;;;;2.90;1.95;;;;;;;;;;5030896;28;20436;-37
2022/04/18 04:46:30;;;;;;;2.88;1.80;;;;;;;;;;5030849;28;20057;-37
2022/04/18 04:49:07;;;;;;;3.33;1.88;;;;;;;;;;5030697;28;20063;-37
2022/04/18 04:51:33;;;;;;;3.45;2.10;;;;;;;;;;5030806;28;20141;-38
2022/04/18 04:53:59;;;;;;;2.28;1.85;;;;;;;;;;5030747;28;20071;-37
2022/04/18 04:56:30;;;;;;;1.63;1.35;;;;;;;;;;5030743;28;20037;-37
2022/04/18 04:58:57;;;;;;;2.80;1.67;;;;;;;;;;5032029;28;20025;-37
2022/04/18 05:01:25;;;;;;;2.75;1.73;;;;;;;;;;5030575;28;20029;-37
2022/04/18 05:03:58;;;;;;;4.15;1.83;;;;;;;;;;5030535;28;20025;-37
2022/04/18 05:06:24;;;;;;;1.77;1.50;;;;;;;;;;5030612;28;20032;-37
2022/04/18 05:08:49;;;;;;;4.68;1.83;;;;;;;;;;5030619;28;20022;-37
2022/04/18 05:11:15;;;;;;;2.92;2.15;;;;;;;;;;5030373;28;20598;-37
2022/04/18 05:13:58;;;;;;;3.38;1.90;;;;;;;;;;5030476;28;20151;-37
2022/04/18 05:16:53;;;;;;;4.32;1.75;;;;;;;;;;5031140;28;20041;-37
2022/04/18 05:19:34;;;;;;;3.55;2.42;;;;;;;;;;5030388;28;20037;-39
2022/04/18 05:22:20;;;;;;;3.38;1.60;;;;;;;;;;5031528;28;20033;-37
2022/04/18 05:24:49;;;;;;;4.53;1.88;;;;;;;;;;5030319;28;20025;-37
2022/04/18 05:27:18;;;;;;;3.70;2.13;;;;;;;;;;5030263;28;20476;-37
2022/04/18 05:29:45;;;;;;;6.72;2.35;;;;;;;;;;5030268;28;20032;-37
2022/04/18 05:32:11;;;;;;;4.68;2.00;;;;;;;;;;5030062;28;20104;-40
2022/04/18 05:34:44;;;;;;;3.45;2.53;;;;;;;;;;5030291;28;20079;-37
2022/04/18 05:37:29;;;;;;;5.80;2.45;;;;;;;;;;5031148;28;20108;-38
2022/04/18 05:40:05;;;;;;;3.45;2.05;;;;;;;;;;5029938;28;20087;-37
2022/04/18 05:42:34;;;;;;;2.95;1.92;;;;;;;;;;5030069;28;20048;-39
2022/04/18 05:45:08;;;;;;;6.72;2.22;;;;;;;;;;5029976;28;20044;-37
2022/04/18 05:47:35;;;;;;;4.43;2.05;;;;;;;;;;5029876;28;20076;-37
2022/04/18 05:50:04;;;;;;;1.83;1.65;;;;;;;;;;5029913;28;20025;-37
2022/04/18 05:52:31;;;;;;;1.70;1.60;;;;;;;;;;5030044;28;20029;-37
2022/04/18 05:55:07;;;;;;;4.28;2.33;;;;;;;;;;5029891;28;20051;-37
2022/04/18 05:57:33;;;;;;;2.42;2.22;;;;;;;;;;5029991;28;20388;-37
2022/04/18 06:00:02;;;;;;;3.78;2.10;;;;;;;;;;5031164;28;20108;-37
2022/04/18 06:02:40;;;;;;;3.88;1.63;;;;;;;;;;5029919;28;20515;-37
2022/04/18 06:05:10;;;;;;;5.43;1.63;;;;;;;;;;5029864;28;20030;-37
2022/04/18 06:07:54;;;;;;;2.53;1.83;;;;;;;;;;5031488;28;20044;-37
2022/04/18 06:10:25;;;;;;;2.13;1.70;;;;;;;;;;5031427;28;20041;-37
2022/04/18 06:13:09;;;;;;;2.10;1.70;;;;;;;;;;5029838;28;20067;-37
2022/04/18 06:15:37;;;;;;;2.63;1.65;;;;;;;;;;5029720;28;20041;-37
2022/04/18 06:18:02;;;;;;;3.03;2.00;;;;;;;;;;5029788;28;20096;-37
2022/04/18 06:20:28;;;;;;;3.15;1.30;;;;;;;;;;5031042;28;20029;-37
2022/04/18 06:22:56;;;;;;;4.00;1.58;;;;;;;;;;5029595;28;20079;-37
2022/04/18 06:25:22;;;;;;;1.50;1.40;;;;;;;;;;5029806;28;20083;-38
2022/04/18 06:27:48;;;;;;;1.77;1.20;;;;;;;;;;5029678;28;20443;-37
2022/04/18 06:30:14;;;;;;;1.63;1.52;;;;;;;;;;5029564;28;20033;-37
2022/04/18 06:33:09;;;;;;;3.55;1.40;;;;;;;;;;5030679;28;20501;-38
2022/04/18 06:35:35;;;;;;;2.83;1.30;;;;;;;;;;5029606;28;20124;-37
2022/04/18 06:38:00;;;;;;;4.03;1.30;;;;;;;;;;5029509;28;20021;-37
2022/04/18 06:40:44;;;;;;;2.53;1.33;;;;;;;;;;5030883;28;20053;-37
2022/04/18 06:43:11;;;;;;;2.47;1.35;;;;;;;;;;5029450;28;20128;-37
2022/04/18 06:45:44;;;;;;;3.13;1.63;;;;;;;;;;5029430;28;20026;-37
2022/04/18 06:48:09;;;;;;;1.15;1.05;;;;;;;;;;5029491;28;20042;-37
2022/04/18 06:50:58;;;;;;;0.90;0.90;;;;;;;;;;5032470;28;20037;-37
2022/04/18 06:53:56;;;;;;;1.80;1.35;;;;;;;;;;5043831;28;20056;-37
2022/04/18 06:57:00;;;;;;;2.38;1.38;;;;;;;;;;5033140;28;20450;-38
2022/04/18 06:59:35;;;;;;;1.95;1.38;;;;;;;;;;5033099;28;20040;-37
2022/04/18 07:02:00;;;;;;;1.88;1.38;;;;;;;;;;5032759;28;20037;-37
2022/04/18 07:04:27;;;;;;;2.67;1.80;;;;;;;;;;5032878;28;20021;-37
2022/04/18 07:06:53;;;;;;;4.13;1.50;;;;;;;;;;5034130;28;20035;-37
2022/04/18 07:09:20;;;;;;;5.43;1.90;;;;;;;;;;5032765;28;20444;-37
2022/04/18 07:12:06;;;;;;;1.77;1.30;;;;;;;;;;5033754;28;20057;-37
2022/04/18 07:14:34;;;;;;;3.67;1.70;;;;;;;;;;5032687;28;20673;-37
2022/04/18 07:17:00;;;;;;;2.38;1.05;;;;;;;;;;5032676;28;20049;-37
2022/04/18 07:19:28;;;;;;;2.13;1.40;;;;;;;;;;5032635;28;20469;-37
2022/04/18 07:21:55;;;;;;;1.88;1.48;;;;;;;;;;5032454;28;20041;-37
2022/04/18 07:24:23;;;;;;;2.78;1.20;;;;;;;;;;5032511;28;20494;-37
2022/04/18 07:26:51;;;;;;;2.45;1.70;;;;;;;;;;5032471;28;20446;-37
2022/04/18 07:29:17;;;;;;;6.85;1.55;;;;;;;;;;5033629;28;20033;-37
2022/04/18 07:31:43;;;;;;;2.65;1.65;;;;;;;;;;5032387;28;20049;-37
2022/04/18 07:34:09;;;;;;;1.63;1.23;;;;;;;;;;5032183;28;20036;-37
2022/04/18 07:36:35;;;;;;;2.47;1.60;;;;;;;;;;5033863;28;20049;-36
2022/04/18 07:39:00;;;;;;;4.97;1.73;;;;;;;;;;5032198;28;20053;-37
2022/04/18 07:41:36;;;;;;;2.85;1.33;;;;;;;;;;5032128;28;20064;-37
2022/04/18 07:44:03;;;;;;;1.65;1.50;;;;;;;;;;5033585;28;20034;-37
2022/04/18 07:46:32;;;;;;;1.38;1.25;;;;;;;;;;5031992;28;20049;-37
2022/04/18 07:49:00;;;;;;;3.70;1.70;;;;;;;;;;5031937;28;20025;-37
2022/04/18 07:51:36;;;;;;;1.33;0.98;;;;;;;;;;5032050;28;20116;-37
2022/04/18 07:54:20;;;;;;;3.22;1.30;;;;;;;;;;5031873;28;20029;-37
2022/04/18 07:56:47;;;;;;;2.47;1.27;;;;;;;;;;5031966;28;20571;-37
2022/04/18 07:59:14;;;;;;;2.42;1.00;;;;;;;;;;5031744;28;20040;-37
2022/04/18 08:01:40;;;;;;;3.75;1.42;;;;;;;;;;5032785;28;20392;-37
2022/04/18 08:04:10;;;;;;;1.63;1.15;;;;;;;;;;5031732;28;20456;-37
2022/04/18 08:06:39;;;;;;;5.93;1.88;;;;;;;;;;5033258;28;20156;-37
2022/04/18 08:09:11;;;;;;;1.35;1.17;;;;;;;;;;5031668;28;20021;-37
2022/04/18 08:11:37;;;;;;;1.48;1.05;;;;;;;;;;5031630;28;20043;-37
2022/04/18 08:14:03;;;;;;;1.17;0.95;;;;;;;;;;5031542;28;20425;-37
2022/04/18 08:16:45;;;;;;;1.50;1.30;;;;;;;;;;5031537;28;20029;-37
2022/04/18 08:19:39;;;;;;;3.83;2.00;;;;;;;;;;5032424;28;20033;-37
2022/04/18 08:22:06;;;;;;;3.33;1.27;;;;;;;;;;5032498;28;20033;-37
2022/04/18 08:24:37;;;;;;;2.63;1.48;;;;;;;;;;5031327;28;20025;-37
2022/04/18 08:27:41;;;;;;;2.28;1.00;;;;;;;;;;5031899;28;20041;-37
2022/04/18 08:30:13;;;;;;;2.25;1.30;;;;;;;;;;5031159;28;20033;-37
2022/04/18 08:32:48;;;;;;;2.38;1.38;;;;;;;;;;5031136;28;20030;-37
2022/04/18 08:35:13;;;;;;;2.58;1.10;;;;;;;;;;5032411;28;20033;-37
2022/04/18 08:37:39;;;;;;;1.98;1.23;;;;;;;;;;5032387;28;20025;-37
2022/04/18 08:40:24;;;;;;;1.30;1.17;;;;;;;;;;5032162;28;20040;-37
2022/04/18 08:42:57;;;;;;;1.95;1.38;;;;;;;;;;5031016;28;20029;-37
2022/04/18 08:45:24;;;;;;;1.77;1.38;;;;;;;;;;5030841;28;20140;-37
2022/04/18 08:53:23;;;;;;;1.85;1.42;;;;;;;;;;5030800;28;20030;-37
2022/04/18 08:55:49;;;;;;;4.28;1.40;;;;;;;;;;5030863;28;20025;-37
2022/04/18 08:58:34;;;;;;;1.27;1.00;;;;;;;;;;5031044;28;20595;-37
2022/04/18 09:01:03;;;;;;;1.80;1.05;;;;;;;;;;5030541;28;20392;-37
2022/04/18 09:03:54;;;;;;;1.33;1.02;;;;;;;;;;5030716;28;20464;-37
2022/04/18 09:06:29;;;;;;;1.23;0.90;;;;;;;;;;5030605;28;20121;-37
2022/04/18 09:09:04;;;;;;;1.20;0.80;;;;;;;;;;5030593;28;20480;-37
2022/04/18 09:11:32;;;;;;;1.45;0.93;;;;;;;;;;5030505;28;20029;-37
2022/04/18 09:14:08;;;;;;;2.45;1.17;;;;;;;;;;5029893;28;20017;-37
2022/04/18 09:16:35;;;;;;;3.28;1.30;;;;;;;;;;5030459;28;20032;-37
2022/04/18 09:19:11;;;;;;;2.65;1.00;;;;;;;;;;5030380;28;20492;-37
2022/04/18 09:21:42;;;;;;;2.40;1.10;;;;;;;;;;5030204;28;20037;-37
2022/04/18 09:24:07;;;;;;;4.13;1.30;;;;;;;;;;5030291;28;20128;-37
2022/04/18 09:26:39;;;;;;;0.70;0.70;;;;;;;;;;5030298;28;20480;-37
2022/04/18 09:29:07;;;;;;;1.17;0.70;;;;;;;;;;5030235;28;20036;-37
2022/04/18 09:31:40;;;;;;;2.15;1.00;;;;;;;;;;5030226;28;20495;-37
2022/04/18 09:34:10;;;;;;;1.25;0.82;;;;;;;;;;5030102;28;20084;-37
2022/04/18 09:36:35;;;;;;;1.88;1.48;;;;;;;;;;5031361;28;20391;-37
2022/04/18 09:39:01;;;;;;;1.95;0.80;;;;;;;;;;5030107;28;20022;-37
2022/04/18 09:41:27;;;;;;;1.75;0.90;;;;;;;;;;5031644;28;20034;-37
2022/04/18 09:43:54;;;;;;;1.23;0.70;;;;;;;;;;5030187;28;20154;-37
2022/04/18 09:46:26;;;;;;;3.40;1.25;;;;;;;;;;5029944;28;20163;-37
2022/04/18 09:49:16;;;;;;;1.23;0.85;;;;;;;;;;5029911;28;20029;-37
2022/04/18 09:51:51;;;;;;;2.42;1.30;;;;;;;;;;5030075;28;20400;-37
2022/04/18 09:54:18;;;;;;;0.85;0.80;;;;;;;;;;5029911;28;20025;-37
2022/04/18 09:56:50;;;;;;;2.30;1.00;;;;;;;;;;5031494;28;20017;-37
2022/04/18 09:59:16;;;;;;;2.97;1.00;;;;;;;;;;5031478;28;20223;-37
2022/04/18 10:01:41;;;;;;;0.80;0.80;;;;;;;;;;5029854;28;20048;-37
2022/04/18 10:04:08;;;;;;;1.63;1.10;;;;;;;;;;5031054;28;20542;-37
2022/04/18 10:06:34;;;;;;;2.95;1.00;;;;;;;;;;5031459;28;20380;-37
2022/04/18 10:08:59;;;;;;;2.05;0.90;;;;;;;;;;5031078;28;20030;-37
2022/04/18 10:11:25;;;;;;;2.97;1.50;;;;;;;;;;5031014;28;20036;-37
2022/04/18 10:13:51;;;;;;;0.85;0.85;;;;;;;;;;5031091;28;20120;-37
2022/04/18 10:16:18;;;;;;;0.88;0.88;;;;;;;;;;5030033;28;20105;-37
2022/04/18 10:18:47;;;;;;;1.05;0.70;;;;;;;;;;5031030;28;20025;-37
2022/04/18 10:21:17;;;;;;;1.27;1.05;;;;;;;;;;5031168;28;20114;-37
2022/04/18 10:23:48;;;;;;;0.73;0.70;;;;;;;;;;5030955;28;20029;-37
2022/04/18 10:26:34;;;;;;;3.72;1.08;;;;;;;;;;5033636;28;20035;-37
2022/04/18 10:29:05;;;;;;;1.10;0.68;;;;;;;;;;5035036;28;20103;-37
2022/04/18 10:31:35;;;;;;;1.45;0.80;;;;;;;;;;5034727;28;20400;-37
2022/04/18 10:34:00;;;;;;;1.63;0.70;;;;;;;;;;5034968;28;20053;-37
2022/04/18 10:36:26;;;;;;;3.03;0.93;;;;;;;;;;5034759;28;20518;-37
2022/04/18 10:38:53;;;;;;;4.20;0.63;;;;;;;;;;5034974;28;20029;-37
2022/04/18 10:41:37;;;;;;;2.47;1.10;;;;;;;;;;5034737;28;20132;-37
2022/04/18 10:44:06;;;;;;;1.25;0.75;;;;;;;;;;5034514;28;20033;-37
2022/04/18 10:46:32;;;;;;;0.68;0.65;;;;;;;;;;5034369;28;20053;-37
2022/04/18 10:48:59;;;;;;;1.75;0.95;;;;;;;;;;5034602;28;20075;-37
2022/04/18 10:51:28;;;;;;;2.13;1.10;;;;;;;;;;5034621;28;20113;-37
2022/04/18 10:54:09;;;;;;;1.48;1.20;;;;;;;;;;5034586;28;20033;-37
2022/04/18 10:56:47;;;;;;;2.13;1.20;;;;;;;;;;5034334;28;20044;-37
2022/04/18 10:59:15;;;;;;;3.75;1.50;;;;;;;;;;5034250;28;20029;-37
2022/04/18 11:01:42;;;;;;;1.08;0.93;;;;;;;;;;5034207;28;20041;-37
2022/04/18 11:04:08;;;;;;;5.80;1.60;;;;;;;;;;5034156;28;20037;-37
2022/04/18 11:06:37;;;;;;;1.75;1.40;;;;;;;;;;5034361;28;20055;-37
2022/04/18 11:09:06;;;;;;;2.60;1.00;;;;;;;;;;5034048;28;20033;-37
2022/04/18 11:11:35;;;;;;;2.15;1.20;;;;;;;;;;5034274;28;20105;-37
2022/04/18 11:14:01;;;;;;;1.52;0.98;;;;;;;;;;5033929;28;20069;-37
2022/04/18 11:16:26;;;;;;;3.47;1.33;;;;;;;;;;5034022;28;20053;-37
2022/04/18 11:19:24;;;;;;;1.98;0.80;;;;;;;;;;5034182;28;20476;-37
2022/04/18 11:21:56;;;;;;;0.80;0.70;;;;;;;;;;5032119;28;20085;-37
2022/04/18 11:24:41;;;;;;;2.42;1.15;;;;;;;;;;5033863;28;20029;-37
2022/04/18 11:27:14;;;;;;;2.42;1.20;;;;;;;;;;5034061;28;20037;-37
2022/04/18 11:29:44;;;;;;;2.05;1.25;;;;;;;;;;5033732;28;20473;-37
2022/04/18 11:32:13;;;;;;;2.30;1.30;;;;;;;;;;5033770;28;20061;-37
2022/04/18 11:34:42;;;;;;;1.05;0.98;;;;;;;;;;5033665;28;20123;-37
2022/04/18 11:37:13;;;;;;;0.80;0.80;;;;;;;;;;5032959;28;20025;-37
2022/04/18 11:39:42;;;;;;;3.45;1.83;;;;;;;;;;5033634;28;20025;-37
2022/04/18 11:42:08;;;;;;;1.98;1.05;;;;;;;;;;5033201;28;20028;-37
2022/04/18 11:44:40;;;;;;;1.10;0.63;;;;;;;;;;5033769;28;20025;-37
2022/04/18 11:47:10;;;;;;;1.80;0.73;;;;;;;;;;5033254;28;20060;-37
2022/04/18 11:49:38;;;;;;;1.92;1.10;;;;;;;;;;5033320;28;20033;-37
2022/04/18 11:52:04;;;;;;;4.07;1.30;;;;;;;;;;5033199;28;20079;-38
2022/04/18 11:54:29;;;;;;;1.48;1.05;;;;;;;;;;5033251;28;20025;-37
2022/04/18 11:56:58;;;;;;;2.00;1.10;;;;;;;;;;5033465;28;20034;-37
2022/04/18 11:59:28;;;;;;;4.93;1.60;;;;;;;;;;5033048;28;20017;-37
2022/04/18 12:07:22;;;;;;;1.65;1.30;;;;;;;;;;5033035;28;20044;-37
2022/04/18 12:09:48;;;;;;;2.22;1.83;;;;;;;;;;5032986;28;20029;-37
2022/04/18 12:12:27;;;;;;;2.30;1.02;;;;;;;;;;5032760;28;20056;-37
2022/04/18 12:14:53;;;;;;;2.30;0.98;;;;;;;;;;5032893;28;20033;-37
2022/04/18 12:17:18;;;;;;;1.52;1.10;;;;;;;;;;5031812;28;20104;-37
2022/04/18 12:19:44;;;;;;;5.18;1.30;;;;;;;;;;5033036;28;20487;-37
2022/04/18 12:22:18;;;;;;;4.18;1.65;;;;;;;;;;5032900;28;20037;-37
2022/04/18 12:24:44;;;;;;;1.30;0.88;;;;;;;;;;5032584;28;20124;-37
2022/04/18 12:27:09;;;;;;;6.25;1.10;;;;;;;;;;5032640;28;20123;-37
2022/04/18 12:29:35;;;;;;;1.25;1.02;;;;;;;;;;5032645;28;20091;-37
2022/04/18 12:32:00;;;;;;;2.63;1.35;;;;;;;;;;5032456;28;20022;-37
2022/04/18 12:34:26;;;;;;;2.17;1.45;;;;;;;;;;5032808;28;20029;-37
2022/04/18 12:36:58;;;;;;;4.72;1.48;;;;;;;;;;5032795;28;20036;-37
2022/04/18 12:39:25;;;;;;;0.90;0.90;;;;;;;;;;5032528;28;20064;-37
2022/04/18 12:42:00;;;;;;;2.03;1.20;;;;;;;;;;5031046;28;20033;-37
2022/04/18 12:44:27;;;;;;;4.75;1.55;;;;;;;;;;5032352;28;20427;-37
2022/04/18 12:46:52;;;;;;;1.48;1.38;;;;;;;;;;5032128;28;20488;-37
2022/04/18 12:49:18;;;;;;;2.20;1.48;;;;;;;;;;5031314;28;20040;-37
2022/04/18 12:51:48;;;;;;;2.05;1.63;;;;;;;;;;5032442;28;20468;-37
2022/04/18 12:54:21;;;;;;;0.77;0.77;;;;;;;;;;5031967;28;20049;-37
2022/04/18 12:56:48;;;;;;;2.20;1.30;;;;;;;;;;5031169;28;20053;-37
2022/04/18 12:59:20;;;;;;;1.90;1.30;;;;;;;;;;5031955;28;20022;-37
2022/04/18 13:01:46;;;;;;;1.60;1.13;;;;;;;;;;5031881;28;20557;-37
2022/04/18 13:04:19;;;;;;;2.22;1.20;;;;;;;;;;5031963;28;20021;-37
2022/04/18 13:06:54;;;;;;;1.15;0.93;;;;;;;;;;5032008;28;20030;-38
2022/04/18 13:09:20;;;;;;;3.53;1.30;;;;;;;;;;5031823;28;20500;-37
2022/04/18 13:11:46;;;;;;;2.40;1.15;;;;;;;;;;5032094;28;20060;-37
2022/04/18 13:14:12;;;;;;;4.50;2.30;;;;;;;;;;5031679;28;20033;-37
2022/04/18 13:16:42;;;;;;;2.45;1.65;;;;;;;;;;5032153;28;20014;-37
2022/04/18 13:19:09;;;;;;;1.95;1.10;;;;;;;;;;5031677;28;20029;-37
2022/04/18 13:21:35;;;;;;;1.58;1.25;;;;;;;;;;5031623;28;20124;-37
2022/04/18 13:24:00;;;;;;;1.85;1.30;;;;;;;;;;5031643;28;20116;-37
2022/04/18 13:26:26;;;;;;;2.33;1.25;;;;;;;;;;5031911;28;20029;-37
2022/04/18 13:28:52;;;;;;;5.03;1.38;;;;;;;;;;5031554;28;20112;-37
2022/04/18 13:31:17;;;;;;;1.50;1.00;;;;;;;;;;5031751;28;20524;-37
2022/04/18 13:33:43;;;;;;;2.08;1.25;;;;;;;;;;5031523;28;20365;-37
2022/04/18 13:38:53;;;;;;;4.50;1.38;;;;;;;;;;5031739;28;20431;-37
2022/04/18 13:41:19;;;;;;;3.22;1.40;;;;;;;;;;5031543;28;20030;-37
2022/04/18 13:43:45;;;;;;;1.20;1.10;;;;;;;;;;5031373;28;20080;-37
2022/04/18 13:46:10;;;;;;;10.15;1.50;;;;;;;;;;5031098;28;20055;-37
2022/04/18 13:48:36;;;;;;;2.00;1.10;;;;;;;;;;5031747;28;20017;-37
2022/04/18 13:51:02;;;;;;;3.58;1.52;;;;;;;;;;5031226;28;20439;-37
2022/04/18 13:53:27;;;;;;;5.05;1.40;;;;;;;;;;5031110;28;20037;-37
2022/04/18 13:55:53;;;;;;;1.50;0.85;;;;;;;;;;5031414;28;20014;-37
2022/04/18 13:58:19;;;;;;;2.00;1.17;;;;;;;;;;5031170;28;20025;-37
2022/04/18 14:00:44;;;;;;;6.57;1.88;;;;;;;;;;5034631;28;20021;-37
2022/04/18 14:03:10;;;;;;;3.20;1.13;;;;;;;;;;5035369;28;20038;-37
2022/04/18 14:05:38;;;;;;;0.95;0.77;;;;;;;;;;5035538;28;20473;-37
2022/04/18 14:08:04;;;;;;;3.25;1.15;;;;;;;;;;5035341;28;20091;-37
2022/04/18 14:10:29;;;;;;;1.65;0.75;;;;;;;;;;5035181;28;20049;-37
2022/04/18 14:12:55;;;;;;;1.20;1.10;;;;;;;;;;5035237;28;20029;-38
2022/04/18 14:20:48;;;;;;;2.08;1.20;;;;;;;;;;5035256;28;20083;-37
2022/04/18 14:23:14;;;;;;;1.67;1.10;;;;;;;;;;5034975;28;20414;-37
2022/04/18 14:25:40;;;;;;;2.38;1.30;;;;;;;;;;5035199;28;20053;-37
2022/04/18 14:28:06;;;;;;;4.53;1.40;;;;;;;;;;5034808;28;20056;-37
2022/04/18 14:30:32;;;;;;;2.22;1.40;;;;;;;;;;5035156;28;20029;-37
2022/04/18 14:32:57;;;;;;;2.10;1.30;;;;;;;;;;5033579;28;20014;-37
2022/04/18 14:35:24;;;;;;;2.72;1.35;;;;;;;;;;5034706;28;20040;-37
2022/04/18 14:37:50;;;;;;;2.47;1.48;;;;;;;;;;5035114;28;20053;-37
2022/04/18 14:40:15;;;;;;;2.25;1.40;;;;;;;;;;5034854;28;20511;-37
2022/04/18 14:42:41;;;;;;;3.30;1.05;;;;;;;;;;5034544;28;20055;-37
2022/04/18 14:45:07;;;;;;;2.70;1.45;;;;;;;;;;5034523;28;20037;-37
2022/04/18 14:47:33;;;;;;;7.90;2.20;;;;;;;;;;5034341;28;20049;-37
2022/04/18 14:50:00;;;;;;;4.13;1.10;;;;;;;;;;5034504;28;20465;-37
2022/04/18 14:52:26;;;;;;;7.53;0.90;;;;;;;;;;5034318;28;20468;-37
2022/04/18 14:54:51;;;;;;;3.03;1.55;;;;;;;;;;5034361;28;20025;-37
2022/04/18 14:57:18;;;;;;;2.42;1.15;;;;;;;;;;5034598;28;20029;-37
2022/04/18 14:59:46;;;;;;;1.95;1.10;;;;;;;;;;5034670;28;20036;-37
2022/04/18 15:02:11;;;;;;;3.63;1.30;;;;;;;;;;5034290;28;20043;-37
2022/04/18 15:04:37;;;;;;;4.72;1.20;;;;;;;;;;5034235;28;20022;-37
2022/04/18 15:07:02;;;;;;;1.52;0.98;;;;;;;;;;5033884;28;20057;-37
2022/04/18 15:09:29;;;;;;;2.03;1.20;;;;;;;;;;5034027;28;20033;-37
2022/04/18 15:11:54;;;;;;;1.42;1.25;;;;;;;;;;5033097;28;20067;-37
2022/04/18 15:14:20;;;;;;;1.52;1.15;;;;;;;;;;5033983;28;20041;-37
2022/04/18 15:16:46;;;;;;;2.88;1.20;;;;;;;;;;5034267;28;20032;-37
2022/04/18 15:19:12;;;;;;;1.08;0.98;;;;;;;;;;5033897;28;20109;-37
2022/04/18 15:21:37;;;;;;;1.75;1.25;;;;;;;;;;5034032;28;20083;-37
2022/04/18 15:24:03;;;;;;;1.30;0.98;;;;;;;;;;5033848;28;20028;-37
2022/04/18 15:26:30;;;;;;;1.58;1.05;;;;;;;;;;5032520;28;20021;-37
2022/04/18 15:28:55;;;;;;;2.70;1.45;;;;;;;;;;5033787;28;20461;-37
2022/04/18 15:34:05;;;;;;;2.15;1.02;;;;;;;;;;5033704;28;20026;-37